Time;durP1;ratioP1;P1;durP2;ratioP2;P2;SDS_P1;SDS_P2;PMS_P1;PMS_P2;Temp;Humidity;BMP_temperature;BMP_pressure;BME280_temperature;BME280_humidity;BME280_pressure;Samples;Min_cycle;Max_cycle;Signal;HPM_P1;HPM_P2
2023/11/25 00:01:00;;;;;;;57.70;24.27;;;-0.70;99.90;;;;;;5073582;28;20017;-78
2023/11/25 00:03:26;;;;;;;35.50;16.25;;;-0.80;99.90;;;;;;5073597;28;20020;-75
2023/11/25 00:05:51;;;;;;;24.50;13.82;;;-0.80;99.90;;;;;;5073564;28;20029;-75
2023/11/25 00:08:17;;;;;;;32.33;14.38;;;-0.80;99.90;;;;;;5073538;28;20044;-78
2023/11/25 00:10:43;;;;;;;30.70;15.63;;;-0.80;99.90;;;;;;5073501;28;20511;-78
2023/11/25 00:13:09;;;;;;;35.03;15.48;;;-0.80;99.90;;;;;;5072216;28;20498;-76
2023/11/25 00:15:34;;;;;;;24.63;12.30;;;-0.80;99.90;;;;;;5073325;28;20032;-76
2023/11/25 00:18:00;;;;;;;29.15;14.13;;;-0.80;99.90;;;;;;5071918;28;20017;-78
2023/11/25 00:20:26;;;;;;;30.15;14.68;;;-0.80;99.90;;;;;;5073308;28;20025;-75
2023/11/25 00:22:52;;;;;;;29.90;14.48;;;-0.80;99.90;;;;;;5073310;28;20013;-77
2023/11/25 00:25:18;;;;;;;28.83;14.40;;;-0.80;99.90;;;;;;5071859;28;20031;-76
2023/11/25 00:27:46;;;;;;;29.75;13.65;;;-0.80;99.90;;;;;;5060023;28;20051;-77
2023/11/25 00:30:12;;;;;;;35.17;16.58;;;-0.80;99.90;;;;;;5071839;28;20478;-75
2023/11/25 00:32:37;;;;;;;26.55;12.95;;;-0.80;99.90;;;;;;5059926;28;20055;-75
2023/11/25 00:35:05;;;;;;;23.33;11.73;;;-0.80;99.90;;;;;;5071900;28;20017;-75
2023/11/25 00:37:32;;;;;;;29.60;13.02;;;-0.80;99.90;;;;;;5072651;28;20555;-76
2023/11/25 00:39:59;;;;;;;27.13;14.68;;;-0.80;99.90;;;;;;5071836;28;20020;-75
2023/11/25 00:42:25;;;;;;;32.97;16.17;;;-0.80;99.90;;;;;;5085062;28;20021;-75
2023/11/25 00:44:51;;;;;;;24.08;12.88;;;-0.80;99.90;;;;;;5065499;28;20016;-78
2023/11/25 00:47:16;;;;;;;25.10;12.75;;;-0.80;99.90;;;;;;5071551;28;20042;-79
2023/11/25 00:49:44;;;;;;;26.92;12.73;;;-0.80;99.90;;;;;;5072840;28;20035;-75
2023/11/25 00:52:10;;;;;;;26.08;12.43;;;-0.80;99.90;;;;;;5071449;28;20016;-75
2023/11/25 00:54:36;;;;;;;21.00;11.55;;;-0.80;99.90;;;;;;5072771;28;20448;-75
2023/11/25 00:57:01;;;;;;;22.33;11.27;;;-0.80;99.90;;;;;;5071529;28;20107;-75
2023/11/25 00:59:29;;;;;;;25.50;13.13;;;-0.80;99.90;;;;;;5071624;28;20052;-79
2023/11/25 01:01:54;;;;;;;21.70;11.40;;;-0.80;99.90;;;;;;5071606;28;20016;-78
2023/11/25 01:04:20;;;;;;;19.77;11.77;;;-0.80;99.90;;;;;;5072655;28;20028;-75
2023/11/25 01:06:47;;;;;;;19.77;11.38;;;-0.80;99.90;;;;;;5070294;28;20528;-75
2023/11/25 01:09:16;;;;;;;24.85;13.35;;;-0.80;99.90;;;;;;5070907;28;20027;-79
2023/11/25 01:11:42;;;;;;;20.80;11.55;;;-0.80;99.90;;;;;;5071492;28;20074;-75
2023/11/25 01:14:09;;;;;;;21.05;11.60;;;-0.80;99.90;;;;;;5071307;28;20021;-78
2023/11/25 01:16:35;;;;;;;23.00;11.18;;;-0.80;99.90;;;;;;5071270;28;20021;-78
2023/11/25 01:19:01;;;;;;;28.73;13.48;;;-0.80;99.90;;;;;;5071120;28;20363;-74
2023/11/25 01:21:26;;;;;;;20.80;10.52;;;-0.80;99.90;;;;;;5072703;28;20032;-78
2023/11/25 01:23:52;;;;;;;17.83;10.10;;;-0.90;99.90;;;;;;5072507;28;20017;-74
2023/11/25 01:26:18;;;;;;;21.58;11.13;;;-0.80;99.90;;;;;;5071275;28;20081;-74
2023/11/25 01:28:44;;;;;;;21.50;12.05;;;-0.80;99.90;;;;;;5072220;28;20032;-78
2023/11/25 01:31:10;;;;;;;19.92;10.35;;;-0.80;99.90;;;;;;5072185;28;20024;-78
2023/11/25 01:33:37;;;;;;;18.33;10.52;;;-0.80;99.90;;;;;;5072289;28;20035;-78
2023/11/25 01:36:03;;;;;;;20.98;11.13;;;-0.80;99.90;;;;;;5072256;28;20028;-78
2023/11/25 01:38:29;;;;;;;24.65;12.52;;;-0.80;99.90;;;;;;5071114;28;20024;-74
2023/11/25 01:40:55;;;;;;;20.13;10.98;;;-0.80;99.90;;;;;;5072262;28;20091;-74
2023/11/25 01:43:25;;;;;;;18.50;10.48;;;-0.90;99.90;;;;;;5070913;28;20389;-76
2023/11/25 01:45:54;;;;;;;24.23;11.02;;;-0.80;99.90;;;;;;5071083;28;20036;-75
2023/11/25 01:48:22;;;;;;;19.60;12.32;;;-0.80;99.90;;;;;;5071102;28;20031;-75
2023/11/25 01:50:48;;;;;;;21.77;10.77;;;-0.90;99.90;;;;;;5072223;28;20044;-75
2023/11/25 01:53:17;;;;;;;23.40;11.38;;;-0.80;99.90;;;;;;5072046;28;20099;-74
2023/11/25 01:55:43;;;;;;;21.65;11.93;;;-0.80;99.90;;;;;;5070961;28;20032;-75
2023/11/25 01:58:10;;;;;;;23.40;11.70;;;-0.80;99.90;;;;;;5070697;28;20036;-79
2023/11/25 02:00:38;;;;;;;19.88;10.95;;;-0.90;99.90;;;;;;5072210;28;20032;-77
2023/11/25 02:03:05;;;;;;;19.67;11.32;;;-0.90;99.90;;;;;;5068729;28;20027;-79
2023/11/25 02:05:31;;;;;;;24.27;13.90;;;-0.90;99.90;;;;;;5071078;28;20052;-75
2023/11/25 02:07:57;;;;;;;30.27;15.57;;;-0.90;99.90;;;;;;5071012;28;20199;-75
2023/11/25 02:10:24;;;;;;;29.52;13.90;;;-0.90;99.90;;;;;;5072090;28;20024;-75
2023/11/25 02:12:50;;;;;;;24.83;13.50;;;-0.90;99.90;;;;;;5072339;28;20013;-75
2023/11/25 02:15:16;;;;;;;61.90;31.27;;;-0.90;99.90;;;;;;5072228;28;20032;-75
2023/11/25 02:17:42;;;;;;;44.67;22.05;;;-0.90;99.90;;;;;;5072334;28;20082;-75
2023/11/25 02:20:10;;;;;;;26.05;14.82;;;-0.90;99.90;;;;;;5075854;28;20024;-79
2023/11/25 02:22:36;;;;;;;24.60;13.68;;;-0.90;99.90;;;;;;5075271;28;20059;-75
2023/11/25 02:25:05;;;;;;;36.55;19.33;;;-0.90;99.90;;;;;;5075698;28;20031;-74
2023/11/25 02:27:31;;;;;;;24.17;13.77;;;-0.90;99.90;;;;;;5075384;28;20533;-78
2023/11/25 02:29:56;;;;;;;26.23;14.20;;;-0.90;99.90;;;;;;5075790;28;20113;-78
2023/11/25 02:32:23;;;;;;;29.10;14.02;;;-0.90;99.90;;;;;;5075214;28;20514;-75
2023/11/25 02:34:48;;;;;;;36.38;22.13;;;-0.90;99.90;;;;;;5075308;28;20017;-79
2023/11/25 02:37:15;;;;;;;28.88;14.52;;;-0.90;99.90;;;;;;5073505;28;20127;-78
2023/11/25 02:39:42;;;;;;;27.75;13.38;;;-0.90;99.90;;;;;;5074107;28;20052;-78
2023/11/25 02:42:09;;;;;;;28.95;17.13;;;-0.90;99.90;;;;;;5075062;28;20421;-79
2023/11/25 02:44:36;;;;;;;25.17;15.15;;;-0.90;99.90;;;;;;5075378;28;20024;-77
2023/11/25 02:47:02;;;;;;;26.65;13.20;;;-0.90;99.90;;;;;;5073685;28;20388;-78
2023/11/25 02:49:28;;;;;;;24.98;13.77;;;-0.90;99.90;;;;;;5074033;28;20025;-75
2023/11/25 02:51:58;;;;;;;30.42;17.48;;;-0.90;99.90;;;;;;5073703;28;20017;-78
2023/11/25 02:54:24;;;;;;;25.23;14.07;;;-0.90;99.90;;;;;;5075126;28;20385;-78
2023/11/25 02:56:50;;;;;;;22.33;12.05;;;-0.90;99.90;;;;;;5074932;28;20037;-79
2023/11/25 02:59:20;;;;;;;27.80;14.10;;;-0.90;99.90;;;;;;5074703;28;20085;-74
2023/11/25 03:01:49;;;;;;;30.95;17.17;;;-0.90;99.90;;;;;;5070869;28;20020;-78
2023/11/25 03:04:16;;;;;;;26.23;15.10;;;-0.90;99.90;;;;;;5073524;28;20023;-75
2023/11/25 03:06:45;;;;;;;27.75;13.02;;;-0.90;99.90;;;;;;5072709;28;20077;-75
2023/11/25 03:09:11;;;;;;;21.92;14.02;;;-0.90;99.90;;;;;;5073269;28;20025;-79
2023/11/25 03:11:37;;;;;;;15.88;10.90;;;-1.00;99.90;;;;;;5074565;28;20024;-79
2023/11/25 03:14:03;;;;;;;22.33;12.32;;;-0.90;99.90;;;;;;5073084;28;20044;-78
2023/11/25 03:16:30;;;;;;;21.58;12.82;;;-0.90;99.90;;;;;;5060588;28;20048;-78
2023/11/25 03:18:56;;;;;;;17.05;11.25;;;-0.90;99.90;;;;;;5073269;28;20100;-79
2023/11/25 03:21:22;;;;;;;23.65;13.45;;;-1.00;99.90;;;;;;5074226;28;20024;-79
2023/11/25 03:23:48;;;;;;;24.15;13.20;;;-0.90;99.90;;;;;;5074818;28;20025;-77
2023/11/25 03:26:14;;;;;;;18.38;11.65;;;-0.90;99.90;;;;;;5073033;28;20017;-77
2023/11/25 03:28:40;;;;;;;21.77;11.38;;;-0.90;99.90;;;;;;5073855;28;20075;-79
2023/11/25 03:31:07;;;;;;;28.00;16.17;;;-0.90;99.90;;;;;;5073841;28;20025;-79
2023/11/25 03:33:33;;;;;;;19.95;11.90;;;-0.90;99.90;;;;;;5074362;28;20111;-75
2023/11/25 03:35:59;;;;;;;19.45;10.60;;;-0.90;99.90;;;;;;5073843;28;20032;-79
2023/11/25 03:38:25;;;;;;;18.92;10.35;;;-0.90;99.90;;;;;;5072816;28;20055;-75
2023/11/25 03:40:52;;;;;;;21.23;13.48;;;-0.90;99.90;;;;;;5074254;28;20048;-75
2023/11/25 03:43:18;;;;;;;22.52;11.60;;;-0.90;99.90;;;;;;5072536;28;20070;-78
2023/11/25 03:45:44;;;;;;;12.73;7.65;;;-0.90;99.90;;;;;;5072935;28;20040;-75
2023/11/25 03:48:10;;;;;;;14.63;9.32;;;-0.90;99.90;;;;;;5072652;28;20016;-78
2023/11/25 03:50:36;;;;;;;18.40;10.60;;;-0.80;99.90;;;;;;5074065;28;20025;-78
2023/11/25 03:53:01;;;;;;;15.52;9.43;;;-0.80;99.90;;;;;;5073676;28;20020;-76
2023/11/25 03:55:27;;;;;;;19.35;9.30;;;-0.80;99.90;;;;;;5072778;28;20078;-75
2023/11/25 03:57:53;;;;;;;17.30;11.75;;;-0.80;99.90;;;;;;5073821;28;20091;-75
2023/11/25 04:00:22;;;;;;;21.23;12.43;;;-0.80;99.90;;;;;;5073927;28;20470;-75
2023/11/25 04:02:48;;;;;;;19.92;11.65;;;-0.80;99.90;;;;;;5073717;28;20071;-75
2023/11/25 04:05:16;;;;;;;25.88;12.25;;;-0.80;99.90;;;;;;5072466;28;20111;-75
2023/11/25 04:07:41;;;;;;;29.17;15.93;;;-0.80;99.90;;;;;;5072413;28;20025;-74
2023/11/25 04:10:15;;;;;;;25.65;14.40;;;-0.80;99.90;;;;;;5072342;28;20508;-75
2023/11/25 04:12:47;;;;;;;26.08;14.82;;;-0.80;99.90;;;;;;5073488;28;20070;-74
2023/11/25 04:15:15;;;;;;;25.98;13.98;;;-0.80;99.90;;;;;;5073686;28;20070;-75
2023/11/25 04:17:42;;;;;;;30.13;17.10;;;-0.80;99.90;;;;;;5071887;28;20067;-78
2023/11/25 04:20:13;;;;;;;26.75;14.48;;;-0.80;99.90;;;;;;5072121;28;20504;-75
2023/11/25 04:22:42;;;;;;;25.45;14.02;;;-0.80;99.90;;;;;;5071902;28;20013;-75
2023/11/25 04:25:13;;;;;;;24.00;13.25;;;-0.80;99.90;;;;;;5073192;28;20116;-74
2023/11/25 04:27:40;;;;;;;29.63;14.52;;;-0.80;99.90;;;;;;5072210;28;20489;-75
2023/11/25 04:30:08;;;;;;;26.85;14.90;;;-0.80;99.90;;;;;;5071886;28;20017;-79
2023/11/25 04:32:34;;;;;;;29.55;14.02;;;-0.80;99.90;;;;;;5071695;28;20083;-78
2023/11/25 04:34:59;;;;;;;28.50;14.43;;;-0.80;99.90;;;;;;5072829;28;20056;-74
2023/11/25 04:37:25;;;;;;;26.50;13.35;;;-0.80;99.90;;;;;;5071865;28;20505;-75
2023/11/25 04:39:51;;;;;;;15.80;8.05;;;-0.90;99.90;;;;;;5071413;28;20052;-78
2023/11/25 04:42:17;;;;;;;13.75;7.88;;;-1.00;99.90;;;;;;5073101;28;20021;-79
2023/11/25 04:44:43;;;;;;;8.73;4.78;;;-0.90;99.90;;;;;;5073003;28;20031;-79
2023/11/25 04:47:09;;;;;;;5.85;4.18;;;-1.00;99.90;;;;;;5072913;28;20020;-74
2023/11/25 04:49:35;;;;;;;4.88;3.25;;;-1.10;99.90;;;;;;5071593;28;20020;-74
2023/11/25 04:52:04;;;;;;;5.82;3.30;;;-1.10;99.90;;;;;;5073032;28;20016;-75
2023/11/25 04:54:30;;;;;;;5.35;3.85;;;-1.10;99.90;;;;;;5072795;28;20103;-78
2023/11/25 04:56:55;;;;;;;6.38;3.72;;;-1.10;99.90;;;;;;5072939;28;20115;-78
2023/11/25 04:59:21;;;;;;;4.97;3.80;;;-1.10;99.90;;;;;;5072622;28;20142;-75
2023/11/25 05:01:47;;;;;;;7.90;4.07;;;-1.10;99.90;;;;;;5072776;28;20023;-75
2023/11/25 05:04:12;;;;;;;9.52;4.10;;;-1.10;99.90;;;;;;5072635;28;20056;-75
2023/11/25 05:06:38;;;;;;;6.38;4.07;;;-1.00;99.90;;;;;;5071542;28;20021;-75
2023/11/25 05:09:05;;;;;;;11.32;4.88;;;-1.00;99.90;;;;;;5071202;28;20078;-75
2023/11/25 05:11:30;;;;;;;6.78;4.47;;;-1.00;99.90;;;;;;5061088;28;20016;-78
2023/11/25 05:13:57;;;;;;;8.10;4.63;;;-0.90;99.90;;;;;;5072257;28;20078;-75
2023/11/25 05:16:24;;;;;;;8.55;4.53;;;-0.90;99.90;;;;;;5071062;28;20398;-75
2023/11/25 05:18:49;;;;;;;7.70;4.95;;;-0.90;99.90;;;;;;5071636;28;20031;-75
2023/11/25 05:21:15;;;;;;;7.10;4.82;;;-0.90;99.90;;;;;;5072438;28;20096;-75
2023/11/25 05:23:41;;;;;;;13.98;6.43;;;-0.90;99.90;;;;;;5071160;28;20082;-79
2023/11/25 05:26:07;;;;;;;8.32;5.57;;;-0.90;99.90;;;;;;5071193;28;20035;-75
2023/11/25 05:28:33;;;;;;;9.70;6.10;;;-0.90;99.90;;;;;;5071073;28;20474;-75
2023/11/25 05:30:59;;;;;;;6.95;4.75;;;-0.90;99.90;;;;;;5071381;28;20059;-75
2023/11/25 05:33:25;;;;;;;7.18;5.35;;;-0.90;99.90;;;;;;5070855;28;20044;-75
2023/11/25 05:35:50;;;;;;;10.60;5.90;;;-0.90;99.90;;;;;;5071150;28;20474;-78
2023/11/25 05:38:19;;;;;;;9.98;5.80;;;-0.90;99.90;;;;;;5072198;28;20024;-78
2023/11/25 05:40:46;;;;;;;8.52;6.82;;;-0.90;99.90;;;;;;5072455;28;20466;-75
2023/11/25 05:43:13;;;;;;;7.20;5.35;;;-0.90;99.90;;;;;;5071053;28;20032;-78
2023/11/25 05:45:40;;;;;;;10.85;6.18;;;-0.90;99.90;;;;;;5072615;28;20016;-79
2023/11/25 05:48:06;;;;;;;11.25;5.82;;;-0.90;99.90;;;;;;5072131;28;20103;-75
2023/11/25 05:50:33;;;;;;;6.28;5.10;;;-0.90;99.90;;;;;;5071086;28;20017;-75
2023/11/25 05:52:59;;;;;;;8.73;5.40;;;-0.90;99.90;;;;;;5072820;28;20040;-78
2023/11/25 05:55:26;;;;;;;9.57;6.30;;;-1.00;99.90;;;;;;5075976;28;20036;-75
2023/11/25 05:57:52;;;;;;;8.55;5.70;;;-0.90;99.90;;;;;;5074823;28;20074;-75
2023/11/25 06:00:19;;;;;;;8.27;5.70;;;-1.00;99.90;;;;;;5074932;28;20048;-75
2023/11/25 06:02:45;;;;;;;8.13;5.00;;;-1.00;99.90;;;;;;5075808;28;20013;-78
2023/11/25 06:05:10;;;;;;;7.78;4.75;;;-1.00;99.90;;;;;;5075986;28;20533;-78
2023/11/25 06:07:36;;;;;;;6.05;4.35;;;-1.00;99.90;;;;;;5075848;28;20021;-75
2023/11/25 06:10:03;;;;;;;5.80;4.45;;;-1.10;99.90;;;;;;5075698;28;20398;-75
2023/11/25 06:12:29;;;;;;;5.80;4.13;;;-1.10;99.90;;;;;;5074344;28;20020;-78
2023/11/25 06:14:55;;;;;;;7.15;4.28;;;-1.10;99.90;;;;;;5074576;28;20439;-75
2023/11/25 06:17:23;;;;;;;7.90;4.78;;;-1.10;99.90;;;;;;5075069;28;20033;-75
2023/11/25 06:19:53;;;;;;;6.13;4.50;;;-1.10;99.90;;;;;;5075591;28;20035;-78
2023/11/25 06:22:20;;;;;;;5.30;3.80;;;-1.20;99.90;;;;;;5075397;28;20055;-78
2023/11/25 06:24:46;;;;;;;5.63;4.18;;;-1.20;99.90;;;;;;5075365;28;20013;-79
2023/11/25 06:27:12;;;;;;;9.65;5.07;;;-1.20;99.90;;;;;;5075291;28;20021;-76
2023/11/25 06:29:39;;;;;;;101.47;36.63;;;-1.20;99.90;;;;;;5074479;28;20028;-78
2023/11/25 06:32:06;;;;;;;18.10;9.02;;;-1.30;99.90;;;;;;5074953;28;20444;-75
2023/11/25 06:34:32;;;;;;;19.83;8.95;;;-1.30;99.90;;;;;;5075492;28;20028;-75
2023/11/25 06:36:58;;;;;;;22.77;9.75;;;-1.30;99.90;;;;;;5074902;28;20039;-78
2023/11/25 06:39:25;;;;;;;12.27;4.93;;;-1.30;99.90;;;;;;5074269;28;20024;-78
2023/11/25 06:41:53;;;;;;;4.47;3.85;;;-1.30;99.90;;;;;;5073682;28;20135;-78
2023/11/25 06:44:19;;;;;;;12.88;6.43;;;-1.30;99.90;;;;;;5073982;28;20115;-75
2023/11/25 06:46:46;;;;;;;5.85;3.50;;;-1.20;99.90;;;;;;5073767;28;20167;-75
2023/11/25 06:49:15;;;;;;;145.73;51.35;;;-1.10;99.90;;;;;;5074162;28;20375;-79
2023/11/25 06:51:41;;;;;;;5.25;3.70;;;-1.10;99.90;;;;;;5073025;28;20024;-79
2023/11/25 06:54:10;;;;;;;10.48;6.25;;;-1.10;99.90;;;;;;5073802;28;20020;-75
2023/11/25 06:56:38;;;;;;;161.95;50.40;;;-1.10;99.90;;;;;;5074685;28;20039;-75
2023/11/25 06:59:05;;;;;;;268.45;84.03;;;-1.10;99.90;;;;;;5073817;28;20466;-77
2023/11/25 07:01:34;;;;;;;27.20;10.52;;;-1.10;99.90;;;;;;5069324;28;20048;-76
2023/11/25 07:04:07;;;;;;;5.20;3.55;;;-1.00;99.90;;;;;;5065401;28;20039;-76
2023/11/25 07:06:32;;;;;;;;;;;-1.00;99.90;;;;;;5073812;28;20054;-76
2023/11/25 07:09:00;;;;;;;17.45;6.20;;;-1.00;99.90;;;;;;5073709;28;19905;-78
2023/11/25 07:11:30;;;;;;;220.80;76.65;;;-1.00;99.90;;;;;;5074167;28;20108;-76
2023/11/25 07:13:56;;;;;;;816.22;358.50;;;-1.00;99.90;;;;;;5073003;28;20021;-78
2023/11/25 07:16:22;;;;;;;177.05;66.63;;;-1.00;99.90;;;;;;5073286;28;20113;-76
2023/11/25 07:18:49;;;;;;;107.82;40.88;;;-0.90;99.90;;;;;;5072993;28;20119;-78
2023/11/25 07:21:15;;;;;;;428.25;171.32;;;-0.90;99.90;;;;;;5073247;28;20039;-78
2023/11/25 07:23:42;;;;;;;463.40;182.52;;;-0.90;99.90;;;;;;5074319;28;20028;-76
2023/11/25 07:26:11;;;;;;;152.02;60.40;;;-0.90;99.90;;;;;;5073012;28;20424;-76
2023/11/25 07:28:37;;;;;;;234.63;83.72;;;-0.90;99.90;;;;;;5072960;28;20020;-78
2023/11/25 07:31:04;;;;;;;777.40;349.98;;;-0.90;99.90;;;;;;5074158;28;20025;-76
2023/11/25 07:33:30;;;;;;;32.30;12.82;;;-0.80;99.90;;;;;;5071310;28;20021;-78
2023/11/25 07:35:57;;;;;;;30.55;14.02;;;-0.90;99.90;;;;;;5073842;28;20036;-76
2023/11/25 07:38:23;;;;;;;49.13;20.10;;;-0.90;99.90;;;;;;5067081;28;20473;-75
2023/11/25 07:40:48;;;;;;;28.42;12.60;;;-0.80;99.90;;;;;;5072544;28;20025;-79
2023/11/25 07:43:15;;;;;;;28.88;12.93;;;-0.90;99.90;;;;;;5072489;28;20017;-78
2023/11/25 07:45:41;;;;;;;161.90;66.63;;;-0.90;99.90;;;;;;5072692;28;20481;-77
2023/11/25 07:48:07;;;;;;;41.38;18.60;;;-0.90;99.90;;;;;;5071947;28;20024;-80
2023/11/25 07:50:33;;;;;;;87.65;37.97;;;-0.90;99.90;;;;;;5072245;28;20089;-80
2023/11/25 07:52:58;;;;;;;80.20;37.03;;;-0.70;99.90;;;;;;5072310;28;20024;-80
2023/11/25 07:55:24;;;;;;;71.75;27.10;;;-0.60;99.90;;;;;;5072332;28;20448;-77
2023/11/25 07:57:50;;;;;;;131.43;52.67;;;-0.50;99.90;;;;;;5062212;28;20398;-79
2023/11/25 08:00:17;;;;;;;294.70;114.40;;;-0.40;99.90;;;;;;5072867;28;20090;-79
2023/11/25 08:02:44;;;;;;;39.90;19.05;;;-0.40;99.90;;;;;;5072039;28;20021;-76
2023/11/25 08:05:11;;;;;;;27.42;12.10;;;-0.30;99.90;;;;;;5071919;28;20058;-75
2023/11/25 08:07:37;;;;;;;39.30;16.15;;;-0.40;99.90;;;;;;5073201;28;20017;-76
2023/11/25 08:10:04;;;;;;;92.93;40.08;;;-0.40;99.90;;;;;;5071362;28;20557;-76
2023/11/25 08:12:30;;;;;;;57.92;26.05;;;-0.30;99.90;;;;;;5071345;28;20067;-76
2023/11/25 08:14:57;;;;;;;35.25;16.80;;;-0.10;99.90;;;;;;5072583;28;20044;-80
2023/11/25 08:17:22;;;;;;;77.68;37.72;;;-0.10;99.90;;;;;;5072488;28;20036;-76
2023/11/25 08:19:48;;;;;;;34.35;16.13;;;-0.10;99.90;;;;;;5067480;28;20020;-76
2023/11/25 08:22:14;;;;;;;61.22;26.67;;;0.00;99.90;;;;;;5070624;28;20445;-76
2023/11/25 08:24:40;;;;;;;12.60;5.55;;;0.00;99.90;;;;;;5071803;28;20069;-77
2023/11/25 08:27:05;;;;;;;40.20;16.00;;;0.00;99.90;;;;;;5072247;28;20076;-76
2023/11/25 08:29:31;;;;;;;111.28;50.72;;;0.10;99.90;;;;;;5071633;28;20178;-76
2023/11/25 08:31:56;;;;;;;21.55;10.30;;;0.10;99.90;;;;;;5072108;28;20075;-76
2023/11/25 08:34:22;;;;;;;29.17;12.50;;;0.00;99.90;;;;;;5071750;28;20478;-76
2023/11/25 08:36:54;;;;;;;27.88;11.68;;;0.00;99.90;;;;;;5069936;28;20028;-76
2023/11/25 08:39:26;;;;;;;69.28;32.03;;;0.00;99.90;;;;;;5072813;28;20016;-77
2023/11/25 08:41:57;;;;;;;37.15;18.45;;;-0.10;99.90;;;;;;5069536;28;20024;-77
2023/11/25 08:44:23;;;;;;;28.15;15.32;;;-0.10;99.90;;;;;;5067511;28;20051;-77
2023/11/25 08:46:50;;;;;;;26.42;13.63;;;-0.20;99.90;;;;;;5069759;28;20474;-76
2023/11/25 08:49:18;;;;;;;25.45;13.05;;;-0.20;99.90;;;;;;5070211;28;20020;-76
2023/11/25 08:51:47;;;;;;;44.83;22.65;;;-0.20;99.90;;;;;;5070405;28;20029;-76
2023/11/25 08:54:20;;;;;;;14.45;7.90;;;-0.10;99.90;;;;;;5069756;28;20052;-77
2023/11/25 08:56:47;;;;;;;20.38;11.65;;;-0.10;99.90;;;;;;5072495;28;20058;-77
2023/11/25 08:59:17;;;;;;;11.75;7.93;;;-0.10;99.90;;;;;;5064788;28;20108;-80
2023/11/25 09:01:44;;;;;;;9.75;5.97;;;0.00;99.90;;;;;;5071747;28;20474;-80
2023/11/25 09:04:13;;;;;;;11.90;7.03;;;0.20;99.90;;;;;;5071749;28;20027;-80
2023/11/25 09:06:39;;;;;;;13.45;7.68;;;0.20;99.90;;;;;;5069068;28;20024;-80
2023/11/25 09:09:09;;;;;;;15.85;6.68;;;0.30;99.90;;;;;;5069123;28;20028;-80
2023/11/25 09:11:35;;;;;;;13.93;6.68;;;0.40;99.90;;;;;;5069852;28;20021;-80
2023/11/25 09:14:03;;;;;;;9.05;5.85;;;0.40;99.90;;;;;;5071110;28;20117;-80
2023/11/25 09:16:29;;;;;;;14.27;6.72;;;0.40;99.90;;;;;;5066753;28;20063;-80
2023/11/25 09:18:55;;;;;;;9.90;5.80;;;0.50;99.90;;;;;;5070852;28;20044;-80
2023/11/25 09:21:21;;;;;;;14.02;6.65;;;0.60;99.90;;;;;;5071711;28;20028;-80
2023/11/25 09:23:46;;;;;;;13.52;6.68;;;0.50;99.90;;;;;;5068936;28;20020;-80
2023/11/25 09:26:12;;;;;;;7.60;5.38;;;0.60;99.90;;;;;;5068893;28;20028;-80
2023/11/25 09:28:38;;;;;;;12.20;6.30;;;0.50;99.90;;;;;;5074470;28;20028;-80
2023/11/25 09:31:03;;;;;;;9.88;6.30;;;0.60;99.90;;;;;;5074271;28;20062;-79
2023/11/25 09:33:30;;;;;;;16.92;8.18;;;0.40;99.90;;;;;;5055803;28;20028;-80
2023/11/25 09:35:56;;;;;;;15.07;8.18;;;0.40;99.90;;;;;;5070497;28;20025;-81
2023/11/25 09:38:22;;;;;;;13.98;6.47;;;0.40;99.90;;;;;;5070460;28;20028;-80
2023/11/25 09:40:48;;;;;;;14.57;6.88;;;0.50;99.90;;;;;;5074620;28;20056;-81
2023/11/25 09:43:17;;;;;;;13.95;8.32;;;0.60;99.90;;;;;;5074774;28;20493;-80
2023/11/25 09:45:44;;;;;;;16.10;9.40;;;0.60;99.90;;;;;;5073694;28;20082;-77
2023/11/25 09:48:10;;;;;;;13.45;8.20;;;0.60;99.90;;;;;;5084605;28;20490;-77
2023/11/25 09:50:37;;;;;;;13.35;8.25;;;0.60;99.90;;;;;;5091463;28;20009;-73
2023/11/25 09:53:14;;;;;;;12.15;6.57;;;0.60;99.90;;;;;;5073086;28;20115;-74
2023/11/25 09:55:45;;;;;;;11.95;5.65;;;0.50;99.90;;;;;;5072370;28;20024;-73
2023/11/25 09:58:17;;;;;;;10.98;7.63;;;0.50;99.90;;;;;;5073059;28;20040;-73
2023/11/25 10:00:43;;;;;;;10.20;6.72;;;0.40;99.90;;;;;;5074905;28;20025;-74
2023/11/25 10:03:11;;;;;;;10.60;5.45;;;0.40;99.90;;;;;;5074494;28;20086;-73
2023/11/25 10:05:36;;;;;;;19.40;11.90;;;0.30;99.90;;;;;;5074876;28;20050;-73
2023/11/25 10:08:04;;;;;;;48.60;20.52;;;0.30;99.90;;;;;;5074808;28;20017;-74
2023/11/25 10:10:30;;;;;;;90.88;39.80;;;0.30;99.90;;;;;;5073219;28;20029;-74
2023/11/25 10:12:55;;;;;;;79.50;36.78;;;0.40;99.90;;;;;;5071430;28;20425;-74
2023/11/25 10:15:31;;;;;;;109.03;44.53;;;0.40;99.90;;;;;;5073597;28;20091;-75
2023/11/25 10:17:57;;;;;;;59.65;28.33;;;0.50;99.90;;;;;;5071419;28;20051;-74
2023/11/25 10:20:22;;;;;;;58.58;23.95;;;0.60;99.90;;;;;;5074319;28;20421;-74
2023/11/25 10:22:53;;;;;;;48.65;16.45;;;0.60;99.90;;;;;;5073681;28;20020;-75
2023/11/25 10:25:21;;;;;;;75.43;27.10;;;0.60;99.90;;;;;;5072694;28;20475;-77
2023/11/25 10:27:47;;;;;;;27.73;11.65;;;0.50;99.90;;;;;;5075398;28;20067;-75
2023/11/25 10:30:14;;;;;;;11.88;6.63;;;0.50;99.90;;;;;;5073726;28;20032;-76
2023/11/25 10:32:40;;;;;;;9.50;5.40;;;0.50;99.90;;;;;;5074209;28;20123;-76
2023/11/25 10:35:08;;;;;;;10.63;6.13;;;0.50;99.90;;;;;;5073283;28;20009;-75
2023/11/25 10:37:35;;;;;;;9.20;6.40;;;0.50;99.90;;;;;;5072917;28;20032;-75
2023/11/25 10:40:01;;;;;;;17.30;9.48;;;0.50;99.90;;;;;;5072962;28;20079;-75
2023/11/25 10:42:28;;;;;;;18.35;10.00;;;0.50;99.90;;;;;;5075106;28;20021;-75
2023/11/25 10:44:54;;;;;;;25.45;13.38;;;0.40;99.90;;;;;;5073263;28;20489;-74
2023/11/25 10:47:33;;;;;;;11.88;7.50;;;0.20;99.90;;;;;;5073622;28;20058;-74
2023/11/25 10:50:02;;;;;;;10.90;6.97;;;0.20;99.90;;;;;;5074810;28;20019;-74
2023/11/25 10:52:38;;;;;;;8.90;5.82;;;0.10;99.90;;;;;;5072789;28;20055;-76
2023/11/25 10:55:06;;;;;;;4.70;3.80;;;0.00;99.90;;;;;;5073008;28;20040;-75
2023/11/25 10:57:33;;;;;;;5.13;3.72;;;-0.10;99.90;;;;;;5074085;28;20044;-75
2023/11/25 11:00:00;;;;;;;8.23;4.30;;;-0.20;99.90;;;;;;5074257;28;20020;-75
2023/11/25 11:02:44;;;;;;;7.22;4.40;;;-0.30;99.90;;;;;;5073216;28;20025;-74
2023/11/25 11:05:10;;;;;;;8.32;5.35;;;-0.20;99.90;;;;;;5067662;28;20052;-75
2023/11/25 11:07:48;;;;;;;9.43;5.85;;;0.00;99.90;;;;;;5073666;28;20020;-75
2023/11/25 11:10:47;;;;;;;9.70;5.82;;;0.00;99.90;;;;;;5071452;28;20028;-79
2023/11/25 11:13:16;;;;;;;12.13;6.57;;;0.00;99.90;;;;;;5065575;28;20055;-78
2023/11/25 11:15:45;;;;;;;15.10;8.07;;;0.00;99.90;;;;;;5072748;28;20025;-78
2023/11/25 11:18:26;;;;;;;13.45;9.00;;;0.20;99.90;;;;;;5072103;28;20037;-78
2023/11/25 11:20:55;;;;;;;14.27;8.43;;;0.20;99.90;;;;;;5073422;28;20028;-79
2023/11/25 11:23:26;;;;;;;12.38;8.95;;;0.30;99.90;;;;;;5072066;28;20106;-79
2023/11/25 11:26:00;;;;;;;11.25;7.03;;;0.40;99.90;;;;;;5074595;28;20512;-79
2023/11/25 11:28:43;;;;;;;10.40;7.25;;;0.40;99.90;;;;;;5072989;28;20069;-79
2023/11/25 11:31:41;;;;;;;11.20;8.35;;;0.60;99.90;;;;;;5072458;28;20027;-79
2023/11/25 11:34:07;;;;;;;9.15;6.15;;;0.70;99.90;;;;;;5060633;28;20055;-79
2023/11/25 11:36:35;;;;;;;11.27;6.45;;;0.70;99.90;;;;;;5072742;28;20040;-79
2023/11/25 11:39:01;;;;;;;11.60;7.35;;;0.70;99.90;;;;;;5072313;28;20047;-79
2023/11/25 11:41:30;;;;;;;10.93;6.30;;;0.70;99.90;;;;;;5075972;28;20457;-78
2023/11/25 11:44:05;;;;;;;10.40;6.97;;;0.50;99.90;;;;;;5073421;28;20086;-77
2023/11/25 11:46:32;;;;;;;13.77;6.68;;;0.50;99.90;;;;;;5073834;28;20032;-79
2023/11/25 11:49:00;;;;;;;11.43;6.13;;;0.40;99.90;;;;;;5071656;28;20572;-80
2023/11/25 11:51:27;;;;;;;8.68;5.43;;;0.30;99.90;;;;;;5071030;28;20066;-80
2023/11/25 11:54:27;;;;;;;10.52;5.90;;;0.30;99.90;;;;;;5071667;28;20103;-80
2023/11/25 11:57:03;;;;;;;10.10;5.13;;;0.30;99.90;;;;;;5059918;28;20033;-80
2023/11/25 12:00:13;;;;;;;8.60;5.60;;;0.30;99.90;;;;;;5071634;28;20032;-79
2023/11/25 12:02:42;;;;;;;5.15;4.43;;;0.30;99.90;;;;;;5072451;28;20036;-79
2023/11/25 12:05:14;;;;;;;9.15;5.43;;;0.20;99.90;;;;;;5072469;28;20024;-80
2023/11/25 12:07:39;;;;;;;10.32;5.68;;;0.20;99.90;;;;;;5070809;28;20024;-79
2023/11/25 12:10:06;;;;;;;10.90;7.28;;;0.30;99.90;;;;;;5071697;28;20443;-80
2023/11/25 12:12:43;;;;;;;14.98;7.28;;;0.30;99.90;;;;;;5064234;28;20441;-79
2023/11/25 12:15:09;;;;;;;11.10;6.55;;;0.30;99.90;;;;;;5059250;28;20053;-79
2023/11/25 12:17:35;;;;;;;22.40;11.02;;;0.40;99.90;;;;;;5066127;28;20072;-79
2023/11/25 12:20:01;;;;;;;292.35;108.22;;;0.40;99.90;;;;;;5070886;28;20024;-78
2023/11/25 12:22:28;;;;;;;238.60;86.70;;;0.50;99.90;;;;;;5071731;28;20070;-79
2023/11/25 12:24:54;;;;;;;29.23;14.80;;;0.50;99.90;;;;;;5059887;28;20027;-79
2023/11/25 12:27:23;;;;;;;53.00;21.63;;;0.50;99.90;;;;;;5073276;28;20020;-79
2023/11/25 12:29:51;;;;;;;176.27;62.75;;;0.50;99.90;;;;;;5070654;28;20056;-78
2023/11/25 12:32:17;;;;;;;64.45;24.73;;;0.50;99.90;;;;;;5063754;28;20061;-78
2023/11/25 12:34:45;;;;;;;56.72;22.73;;;0.50;99.90;;;;;;5072505;28;20401;-79
2023/11/25 12:37:12;;;;;;;44.28;18.58;;;0.50;99.90;;;;;;5073274;28;20044;-79